sensor_id;sensor_type;location;lat;lon;timestamp;P1;durP1;ratioP1;P2;durP2;ratioP2
18973;SDS011;9621;48.690;9.466;2023-01-24T11:41:21;18.00;;;12.90;;
18973;SDS011;9621;48.690;9.466;2023-01-24T11:46:59;17.53;;;11.57;;
18973;SDS011;9621;48.690;9.466;2023-01-24T11:53:04;17.83;;;11.10;;
18973;SDS011;9621;48.690;9.466;2023-01-24T11:56:11;15.30;;;10.40;;
18973;SDS011;9621;48.690;9.466;2023-01-24T12:02:29;12.27;;;8.63;;
18973;SDS011;9621;48.690;9.466;2023-01-24T12:05:31;14.60;;;9.67;;
18973;SDS011;9621;48.690;9.466;2023-01-24T12:08:20;13.03;;;9.23;;
18973;SDS011;9621;48.690;9.466;2023-01-24T12:11:26;12.93;;;8.77;;
18973;SDS011;9621;48.690;9.466;2023-01-24T12:14:13;14.50;;;9.20;;
18973;SDS011;9621;48.690;9.466;2023-01-24T12:17:04;12.87;;;9.50;;
18973;SDS011;9621;48.690;9.466;2023-01-24T12:19:42;13.73;;;9.27;;
18973;SDS011;9621;48.690;9.466;2023-01-24T12:22:21;13.67;;;8.90;;
18973;SDS011;9621;48.690;9.466;2023-01-24T12:24:53;14.67;;;9.47;;
18973;SDS011;9621;48.690;9.466;2023-01-24T12:27:25;13.73;;;9.03;;
18973;SDS011;9621;48.690;9.466;2023-01-24T12:30:22;13.07;;;8.90;;
18973;SDS011;9621;48.690;9.466;2023-01-24T12:32:59;11.30;;;8.00;;
18973;SDS011;9621;48.690;9.466;2023-01-24T12:35:32;12.40;;;8.60;;
18973;SDS011;9621;48.690;9.466;2023-01-24T12:38:10;11.50;;;8.27;;
18973;SDS011;9621;48.690;9.466;2023-01-24T12:40:50;14.10;;;8.30;;
18973;SDS011;9621;48.690;9.466;2023-01-24T12:43:24;9.60;;;7.47;;
18973;SDS011;9621;48.690;9.466;2023-01-24T12:46:04;13.00;;;7.97;;
18973;SDS011;9621;48.690;9.466;2023-01-24T12:48:46;10.27;;;8.00;;
18973;SDS011;9621;48.690;9.466;2023-01-24T12:51:20;11.33;;;7.83;;
18973;SDS011;9621;48.690;9.466;2023-01-24T12:53:57;9.70;;;7.40;;
18973;SDS011;9621;48.690;9.466;2023-01-24T12:56:43;9.13;;;7.57;;
18973;SDS011;9621;48.690;9.466;2023-01-24T13:02:18;9.47;;;7.50;;
18973;SDS011;9621;48.690;9.466;2023-01-24T13:05:16;10.50;;;7.23;;
18973;SDS011;9621;48.690;9.466;2023-01-24T13:07:53;11.70;;;7.77;;
18973;SDS011;9621;48.690;9.466;2023-01-24T13:10:36;10.00;;;6.83;;
18973;SDS011;9621;48.690;9.466;2023-01-24T13:13:13;12.43;;;8.13;;
18973;SDS011;9621;48.690;9.466;2023-01-24T13:15:52;9.33;;;7.03;;
18973;SDS011;9621;48.690;9.466;2023-01-24T13:18:42;17.10;;;7.77;;
18973;SDS011;9621;48.690;9.466;2023-01-24T13:21:17;9.13;;;7.00;;
18973;SDS011;9621;48.690;9.466;2023-01-24T13:23:58;10.10;;;6.93;;
18973;SDS011;9621;48.690;9.466;2023-01-24T13:26:55;10.33;;;7.23;;
18973;SDS011;9621;48.690;9.466;2023-01-24T13:29:34;11.27;;;6.73;;
18973;SDS011;9621;48.690;9.466;2023-01-24T13:32:13;10.73;;;6.97;;
18973;SDS011;9621;48.690;9.466;2023-01-24T13:34:44;10.60;;;6.97;;
18973;SDS011;9621;48.690;9.466;2023-01-24T13:37:19;10.20;;;7.33;;
18973;SDS011;9621;48.690;9.466;2023-01-24T13:39:59;10.33;;;7.07;;
18973;SDS011;9621;48.690;9.466;2023-01-24T13:42:32;11.77;;;7.20;;
18973;SDS011;9621;48.690;9.466;2023-01-24T13:54:36;10.73;;;7.27;;
18973;SDS011;9621;48.690;9.466;2023-01-24T14:03:05;10.53;;;7.00;;
18973;SDS011;9621;48.690;9.466;2023-01-24T14:08:53;11.07;;;7.67;;
18973;SDS011;9621;48.690;9.466;2023-01-24T14:17:47;12.57;;;8.57;;
18973;SDS011;9621;48.690;9.466;2023-01-24T14:20:19;17.67;;;9.60;;
